Airfield :
LOGIN :

Register | Disclaimer

   EN    FR    IT 

 










Legend :    VFR   Marginal VFR   IFR   Intensive IFR   Very Intensive IFR
Visi :
Ceiling :
>= 8 km
>= 3000ft
5 to 8 km
1000 to 3000 ft
1500m to 5 km
500 to 1000 ft
800 to 1500m
200 to 500 ft
< 800m
< 200 ft
Symbols :   Thunderstorms  Fog  Heavy snow  Heavy precipitations  Wind > 20 kt
SIGMETs :     Misc.  Thunderstorms  Icing  Turbulence  Mountain Waves  Volcanic Ashes






- Airport Elevation : 505 ft
- IATA code : SXB


LFST - Strasbourg

CURRENT METAR :
  • 162200Z AUTO 14003KT 110V190 9999 FEW043 BKN052 BKN064 17/15 Q1012 TEMPO FEW040TCU

EXPIRED METARs :
  • 162130Z AUTO 18004KT 150V220 9999 FEW038/// BKN066/// OVC088/// ///TCU 16/15 Q1012 NOSIG
  • 162100Z AUTO 20004KT 9999 RA ///TCU 17/15 Q1012 TEMPO NSW
  • 162030Z AUTO 16004KT 120V180 9999 -RA FEW041/// BKN072/// OVC088/// ///CB 17/15 Q1012 NOSIG
  • 162000Z AUTO VRB03KT 8000 RA SCT042/// BKN070/// OVC086/// ///TCU 17/15 Q1012 TEMPO NSW
  • 161930Z AUTO 25005KT 6000 RA BKN040/// BKN078/// OVC092/// ///TCU 17/14 Q1012 TEMPO NSW
  • 161900Z AUTO 21008KT 9999 RA FEW042/// BKN068/// BKN100/// ///TCU 19/14 Q1011 TEMPO NSW
  • 161830Z AUTO 22011KT 9999 SCT043 BKN058 BKN074 19/12 Q1011 TEMPO FEW040TCU
  • 161800Z AUTO 22007KT 9999 SCT048 BKN064 OVC074 20/12 Q1011 TEMPO FEW040TCU
  • 161730Z AUTO 21009KT 9999 ///TCU 20/12 Q1011 NOSIG

TAF TAF LFST
Valid from the 16 at 18:00 until the 17 at 18:00 UTC


161700Z 1618/1718 21008KT 9999 FEW040
TEMPO 1618/1708 -SHRA FEW040TCU
PROB30
TEMPO 1714/1718 SHRA SCT040TCU



MET'MAP, your aeronautical weather chart ! - Copyright ORBIFLY December 2007 - Disclaimer

ORBIFLY MET'MAP TEAM :

Programming & Development : Alexandra Zaïnal
Original concept : Baudouin d'Aumeries
Technical & hardware support : Manuel Goepfert
Assistance : Marc-Olivier Méhu




SOURCES & CREDITS :

   NOAA